To NAV CANADA Home Page Login to a new session Search on AWWS site Feedback and Comments Disclaimer Vers la page française équivalente Tips FAQ What's new on the site To the Forecasts and Observations / NOTAM section To "File a Flight Plan" website Publications and other links Update of the User's profile FIC Telephone Numbers My Weather Data Folder Route Weather Data Regional Weather Data Local Weather Data To the Forecasts and Observations / NOTAM section
Request Generated 06/26/2017 at 22:29:43 UTC . Weather information available at that time is displayed.

METAR/TAF

CHURCHILL/MB    (show WxCam)

METAR CYYQ 262200Z 34017G22KT 1/8SM R33/2000FT/N FG VV002 09/08 A2974
RMK FG8 SLP073=
SPECI CYYQ 262140Z CCA 32012G18KT 1/8SM R33/6000FT/N FG OVC004 11/10
A2974 RMK ST8 SLP074=
SPECI CYYQ 262140Z 32012G18KT 1/8SM R33/P6000FT/N FG OVC004 11/10
A2974 RMK ST8 SLP074=
SPECI CYYQ 262138Z 32013KT 2SM BR OVC004 11/10 A2974 RMK ST8 SLP074=
SPECI CYYQ 262131Z 33010KT 15SM BKN004 10/10 A2974 RMK ST7 SLP074=
SPECI CYYQ 262120Z 34011KT 15SM VCSH BKN006 OVC026CB 11/10 A2974 RMK
SF5CB3 PRESRR SLP073=
METAR CYYQ 262100Z 01005KT 15SM FEW017 SCT026 BKN070 BKN140 11/10
A2972 RMK CU1CU3AS3AC1 AC TR CIG RAG TCU EMB SHRA DIST SE SLP068=
SPECI CYYQ 262042Z CCA 35005KT 15SM FEW011 BKN019 BKN076 11/10 A2972
RMK SF1CU5AS1 CIG RAG TCU ASOCTD SHRA DIST SE SLP068=
SPECI CYYQ 262042Z 35005KT 15SM FEW011 BKN019 BKN076 11/10 A2972 RMK
SF1CU5AS1 CIG RAG TCU ASOCTD SHRA DIST S SLP068=
SPECI CYYQ 262025Z CCA 20009KT 6SM -SHRA SCT015 BKN076 14/13 A2970
RMK CU4AS3 TCU ASOCTD CIG RAG PRESFR SLP061 DENSITY ALT 300FT=
SPECI CYYQ 262025Z 20009KT 6SM -SHRA SCT015 BKN076 14/13 A2970 RMK
CU4AS3 CU ASOCTD CIG RAG PRESFR SLP061 DENSITY ALT 300FT=
SPECI CYYQ 262018Z 21007KT 15SM -RA FEW015 BKN045 OVC076 14/13 A2972
RMK CU1SC6AS1 VIS W 6 CIG RAG SLP066 DENSITY ALT 300FT=
METAR CYYQ 262000Z 24006KT 15SM SCT015 BKN055 BKN076 14/12 A2972 RMK
CU4SC2AS1 CIG RAG TCU EMB SLP068 DENSITY ALT 300FT=

TAF AMD CYYQ 262206Z 2622/2718 34018KT 0SM FG VV001 TEMPO 2622/2624
3SM BR OVC005
BECMG 2622/2624 05008KT
FM270000 04012KT 1SM -DZ BR OVC003 TEMPO 2700/2715 6SM BR OVC006
FM271500 03012KT P6SM SCT008 TEMPO 2715/2718 5SM BR BKN008
RMK NXT FCST BY 270000Z=
Your time UTC time
Weather data provided by Environment Canada and NAV CANADA